createdAt,value
2018-01-26T00:01:25.490Z,7.40
2018-01-26T00:03:52.938Z,7.40
2018-01-26T00:06:20.605Z,7.40
2018-01-26T00:08:48.822Z,7.50
2018-01-26T00:11:16.299Z,7.50
2018-01-26T00:13:43.735Z,7.50
2018-01-26T00:16:11.202Z,7.50
2018-01-26T00:18:38.637Z,7.50
2018-01-26T00:21:06.089Z,7.50
2018-01-26T00:23:33.521Z,7.50
2018-01-26T00:26:00.983Z,7.50
2018-01-26T00:28:28.426Z,7.40
2018-01-26T00:30:55.886Z,7.40
2018-01-26T00:33:23.381Z,7.30
2018-01-26T00:35:50.854Z,7.20
2018-01-26T00:38:18.565Z,7.00
2018-01-26T00:40:46.023Z,7.00
2018-01-26T00:43:13.461Z,7.00
2018-01-26T00:45:40.905Z,7.00
2018-01-26T00:48:08.629Z,6.90
2018-01-26T00:50:37.056Z,6.90
2018-01-26T00:53:04.521Z,6.90
2018-01-26T00:55:31.989Z,6.90
2018-01-26T00:57:59.436Z,6.90
2018-01-26T01:00:26.917Z,7.00
2018-01-26T01:02:54.363Z,7.10
2018-01-26T01:05:21.820Z,7.10
2018-01-26T01:07:49.281Z,7.10
2018-01-26T01:10:16.729Z,7.20
2018-01-26T01:12:44.175Z,7.20
2018-01-26T01:15:11.645Z,7.20
2018-01-26T01:17:39.053Z,7.20
2018-01-26T01:20:06.513Z,7.30
2018-01-26T01:22:34.047Z,7.30
2018-01-26T01:25:01.470Z,7.30
2018-01-26T01:27:28.926Z,7.20
2018-01-26T01:29:56.378Z,7.20
2018-01-26T01:32:23.830Z,7.20
2018-01-26T01:34:51.283Z,7.20
2018-01-26T01:37:18.718Z,7.20
2018-01-26T01:39:46.171Z,7.10
2018-01-26T01:42:13.630Z,7.10
2018-01-26T01:44:41.073Z,7.20
2018-01-26T01:47:08.508Z,7.20
2018-01-26T01:49:36.750Z,7.10
2018-01-26T01:52:04.190Z,7.10
2018-01-26T01:54:31.638Z,7.00
2018-01-26T01:56:59.091Z,7.00
2018-01-26T01:59:26.577Z,7.00
2018-01-26T02:01:54.034Z,7.00
2018-01-26T02:04:21.472Z,7.00
2018-01-26T02:06:48.915Z,6.90
2018-01-26T02:09:16.349Z,6.90
2018-01-26T02:11:43.798Z,6.90
2018-01-26T02:14:11.238Z,6.90
2018-01-26T02:16:38.718Z,6.90
2018-01-26T02:19:06.142Z,6.80
2018-01-26T02:21:33.610Z,6.80
2018-01-26T02:24:18.498Z,6.80
2018-01-26T02:26:46.731Z,6.80
2018-01-26T02:29:14.175Z,6.80
2018-01-26T02:31:41.634Z,6.90
2018-01-26T02:34:09.103Z,6.90
2018-01-26T02:36:36.558Z,6.90
2018-01-26T02:39:04.002Z,6.80
2018-01-26T02:41:31.449Z,6.70
2018-01-26T02:43:58.885Z,6.70
2018-01-26T02:46:26.331Z,6.70
2018-01-26T02:48:53.773Z,6.70
2018-01-26T02:51:21.240Z,6.70
2018-01-26T02:53:48.686Z,6.70
2018-01-26T02:56:16.143Z,6.50
2018-01-26T02:58:43.624Z,6.50
2018-01-26T03:01:11.070Z,6.50
2018-01-26T03:03:38.514Z,6.50
2018-01-26T03:06:05.958Z,6.50
2018-01-26T03:08:33.415Z,6.50
2018-01-26T03:13:34.645Z,6.50
2018-01-26T03:16:02.121Z,6.50
2018-01-26T03:18:29.561Z,6.50
2018-01-26T03:20:57.116Z,6.50
2018-01-26T03:23:24.574Z,6.60
2018-01-26T03:25:52.031Z,6.60
2018-01-26T03:28:19.466Z,6.50
2018-01-26T03:30:46.932Z,6.50
2018-01-26T03:33:14.372Z,6.60
2018-01-26T03:35:41.827Z,6.60
2018-01-26T03:38:09.259Z,6.70
2018-01-26T03:40:37.479Z,6.60
2018-01-26T03:43:04.935Z,6.60
2018-01-26T03:45:32.383Z,6.70
2018-01-26T03:47:59.844Z,6.80
2018-01-26T03:50:27.286Z,6.90
2018-01-26T03:52:54.730Z,6.80
2018-01-26T03:55:22.219Z,6.70
2018-01-26T03:57:49.662Z,6.70
2018-01-26T04:00:17.119Z,6.70
2018-01-26T04:02:44.568Z,6.70
2018-01-26T04:05:12.043Z,6.70
2018-01-26T04:07:39.514Z,6.80
2018-01-26T04:10:06.963Z,6.70
2018-01-26T04:12:34.472Z,6.70
2018-01-26T04:15:01.913Z,6.70
2018-01-26T04:17:29.362Z,6.70
2018-01-26T04:19:56.797Z,6.70
2018-01-26T04:22:24.262Z,6.70
2018-01-26T04:24:51.717Z,6.70
2018-01-26T04:27:19.179Z,6.80
2018-01-26T04:29:46.610Z,6.90
2018-01-26T04:32:14.058Z,6.90
2018-01-26T04:34:41.511Z,7.00
2018-01-26T04:37:08.962Z,6.90
2018-01-26T04:39:36.406Z,6.90
2018-01-26T04:42:03.861Z,6.90
2018-01-26T04:44:31.303Z,6.90
2018-01-26T04:46:58.751Z,6.90
2018-01-26T04:49:26.195Z,6.80
2018-01-26T04:51:53.640Z,6.80
2018-01-26T04:54:21.074Z,6.70
2018-01-26T04:56:48.530Z,6.70
2018-01-26T04:59:15.979Z,6.80
2018-01-26T05:01:43.443Z,6.80
2018-01-26T05:04:10.908Z,6.80
2018-01-26T05:06:38.354Z,6.70
2018-01-26T05:09:05.785Z,6.80
2018-01-26T05:11:34.019Z,6.60
2018-01-26T05:14:01.459Z,6.60
2018-01-26T05:16:28.913Z,6.60
2018-01-26T05:18:56.345Z,6.60
2018-01-26T05:21:23.794Z,6.60
2018-01-26T05:23:51.235Z,6.60
2018-01-26T05:26:18.690Z,6.70
2018-01-26T05:28:46.122Z,6.60
2018-01-26T05:31:13.582Z,6.80
2018-01-26T05:33:41.035Z,6.80
2018-01-26T05:36:08.473Z,6.70
2018-01-26T05:38:35.944Z,6.70
2018-01-26T05:41:03.385Z,6.80
2018-01-26T05:43:30.830Z,6.90
2018-01-26T05:45:58.289Z,6.90
2018-01-26T05:48:25.737Z,6.80
2018-01-26T05:50:53.174Z,6.90
2018-01-26T05:53:21.386Z,6.90
2018-01-26T05:55:48.827Z,6.90
2018-01-26T05:58:16.281Z,6.90
2018-01-26T06:00:43.710Z,6.80
2018-01-26T06:03:11.175Z,6.80
2018-01-26T06:05:38.630Z,6.80
2018-01-26T06:08:06.062Z,6.90
2018-01-26T06:10:33.507Z,6.90
2018-01-26T06:13:01.005Z,6.80
2018-01-26T06:15:28.432Z,6.90
2018-01-26T06:17:55.875Z,6.90
2018-01-26T06:20:23.318Z,7.00
2018-01-26T06:22:50.786Z,6.90
2018-01-26T06:25:18.227Z,6.90
2018-01-26T06:27:45.703Z,7.00
2018-01-26T06:30:13.140Z,7.00
2018-01-26T06:32:40.606Z,6.90
2018-01-26T06:35:08.063Z,6.90
2018-01-26T06:37:35.519Z,6.90
2018-01-26T06:40:02.955Z,6.90
2018-01-26T06:42:30.411Z,6.90
2018-01-26T06:44:57.865Z,6.90
2018-01-26T06:47:26.065Z,6.90
2018-01-26T06:49:53.530Z,6.90
2018-01-26T06:52:20.982Z,6.90
2018-01-26T06:54:48.445Z,7.00
2018-01-26T06:57:15.903Z,6.90
2018-01-26T06:59:43.378Z,7.00
2018-01-26T07:02:10.834Z,7.00
2018-01-26T07:04:38.273Z,7.00
2018-01-26T07:07:05.742Z,7.00
2018-01-26T07:09:33.187Z,7.00
2018-01-26T07:12:00.642Z,7.00
2018-01-26T07:14:28.087Z,7.10
2018-01-26T07:16:55.563Z,7.00
2018-01-26T07:19:23.080Z,7.00
2018-01-26T07:21:50.474Z,7.00
2018-01-26T07:24:17.914Z,6.90
2018-01-26T07:26:45.422Z,6.90
2018-01-26T07:29:12.826Z,6.80
2018-01-26T07:31:40.285Z,6.80
2018-01-26T07:34:07.755Z,6.90
2018-01-26T07:36:35.239Z,6.90
2018-01-26T07:39:02.682Z,7.00
2018-01-26T07:41:30.138Z,7.00
2018-01-26T07:43:57.585Z,7.00
2018-01-26T07:46:25.013Z,7.00
2018-01-26T07:48:52.546Z,7.10
2018-01-26T07:51:19.950Z,7.10
2018-01-26T07:53:47.386Z,7.10
2018-01-26T07:56:14.824Z,7.10
2018-01-26T07:58:42.271Z,7.00
2018-01-26T08:01:09.706Z,7.00
2018-01-26T08:03:37.158Z,7.00
2018-01-26T08:06:04.708Z,7.00
2018-01-26T08:08:32.067Z,7.10
2018-01-26T08:10:59.518Z,7.20
2018-01-26T08:13:26.967Z,7.10
2018-01-26T08:15:54.423Z,7.20
2018-01-26T08:18:21.881Z,7.30
2018-01-26T08:20:49.314Z,7.30
2018-01-26T08:23:16.770Z,7.20
2018-01-26T08:25:44.210Z,7.20
2018-01-26T08:28:12.416Z,7.20
2018-01-26T08:30:39.875Z,7.20
2018-01-26T08:33:07.330Z,7.30
2018-01-26T08:35:34.806Z,7.40
2018-01-26T08:38:02.256Z,7.40
2018-01-26T08:40:29.707Z,7.40
2018-01-26T08:42:57.352Z,7.30
2018-01-26T08:45:24.828Z,7.40
2018-01-26T08:47:52.400Z,7.40
2018-01-26T08:50:19.837Z,7.50
2018-01-26T08:52:47.497Z,7.40
2018-01-26T08:55:19.907Z,7.50
2018-01-26T08:57:47.539Z,7.50
2018-01-26T09:00:15.205Z,7.40
2018-01-26T09:02:42.977Z,7.40
2018-01-26T09:05:10.735Z,7.40
2018-01-26T09:07:38.422Z,7.30
2018-01-26T09:10:05.867Z,7.40
2018-01-26T09:12:33.754Z,7.50
2018-01-26T09:15:01.280Z,7.30
2018-01-26T09:17:29.130Z,7.40
2018-01-26T09:19:56.571Z,7.30
2018-01-26T09:22:24.088Z,7.40
2018-01-26T09:24:51.517Z,7.40
2018-01-26T09:27:19.266Z,7.40
2018-01-26T09:29:46.690Z,7.40
2018-01-26T09:32:14.915Z,7.40
2018-01-26T09:34:42.382Z,7.40
2018-01-26T09:37:09.835Z,7.50
2018-01-26T09:39:37.644Z,7.70
2018-01-26T09:42:05.359Z,7.70
2018-01-26T09:44:32.811Z,7.60
2018-01-26T09:47:00.303Z,7.60
2018-01-26T09:49:27.911Z,7.70
2018-01-26T09:51:55.676Z,7.80
2018-01-26T09:54:23.278Z,7.80
2018-01-26T09:56:50.763Z,7.70
2018-01-26T09:59:18.215Z,7.60
2018-01-26T10:01:45.903Z,7.60
2018-01-26T10:04:13.385Z,7.40
2018-01-26T10:06:41.887Z,7.40
2018-01-26T10:09:09.533Z,7.50
2018-01-26T10:11:37.157Z,7.40
2018-01-26T10:14:04.710Z,7.40
2018-01-26T10:16:32.522Z,7.50
2018-01-26T10:19:00.008Z,7.50
2018-01-26T10:21:27.745Z,7.60
2018-01-26T10:23:55.193Z,7.60
2018-01-26T10:26:22.901Z,7.60
2018-01-26T10:28:50.360Z,7.70
2018-01-26T10:31:18.195Z,7.70
2018-01-26T10:33:45.857Z,7.60
2018-01-26T10:36:13.304Z,7.60
2018-01-26T10:38:40.763Z,7.60
2018-01-26T10:41:08.378Z,7.70
2018-01-26T10:43:36.002Z,7.70
2018-01-26T10:46:03.728Z,7.70
2018-01-26T10:48:31.318Z,7.80
2018-01-26T10:50:58.783Z,7.80
2018-01-26T10:53:26.426Z,7.80
2018-01-26T10:55:53.914Z,7.70
2018-01-26T10:58:21.483Z,7.70
2018-01-26T11:00:49.701Z,7.90
2018-01-26T11:03:17.163Z,7.90
2018-01-26T11:05:44.626Z,8.00
2018-01-26T11:08:12.092Z,8.10
2018-01-26T11:10:39.609Z,8.20
2018-01-26T11:13:07.083Z,8.10
2018-01-26T11:15:34.552Z,8.20
2018-01-26T11:18:02.015Z,8.10
2018-01-26T11:20:29.509Z,8.10
2018-01-26T11:22:56.924Z,8.10
2018-01-26T11:25:24.387Z,8.20
2018-01-26T11:27:51.844Z,8.30
2018-01-26T11:30:19.292Z,8.40
2018-01-26T11:32:46.742Z,8.40
2018-01-26T11:35:14.213Z,8.30
2018-01-26T11:37:41.672Z,8.30
2018-01-26T11:40:09.112Z,8.40
2018-01-26T11:42:36.545Z,8.40
2018-01-26T11:45:04.014Z,8.40
2018-01-26T11:47:31.455Z,8.40
2018-01-26T11:49:58.903Z,8.50
2018-01-26T11:52:26.339Z,8.40
2018-01-26T11:54:53.794Z,8.40
2018-01-26T11:57:21.246Z,8.50
2018-01-26T11:59:48.697Z,8.60
2018-01-26T12:02:16.433Z,8.40
2018-01-26T12:04:43.867Z,8.50
2018-01-26T12:07:12.067Z,8.70
2018-01-26T12:09:39.526Z,8.60
2018-01-26T12:12:07.180Z,8.70
2018-01-26T12:14:34.632Z,8.90
2018-01-26T12:17:02.068Z,8.90
2018-01-26T12:19:30.281Z,8.80
2018-01-26T12:21:57.745Z,8.80
2018-01-26T12:24:25.393Z,9.10
2018-01-26T12:26:52.864Z,8.90
2018-01-26T12:29:20.322Z,8.80
2018-01-26T12:31:47.759Z,8.90
2018-01-26T12:34:15.203Z,8.80
2018-01-26T12:36:42.638Z,8.60
2018-01-26T12:39:10.850Z,8.60
2018-01-26T12:41:38.288Z,8.60
2018-01-26T12:44:05.733Z,8.80
2018-01-26T12:46:33.175Z,8.90
2018-01-26T12:49:00.649Z,9.10
2018-01-26T12:51:28.112Z,9.10
2018-01-26T12:53:55.550Z,9.10
2018-01-26T12:56:22.986Z,9.10
2018-01-26T12:58:51.358Z,9.10
2018-01-26T13:01:18.822Z,9.10
2018-01-26T13:03:46.287Z,9.30
2018-01-26T13:06:13.746Z,9.40
2018-01-26T13:08:41.982Z,9.60
2018-01-26T13:11:09.616Z,9.50
2018-01-26T13:13:37.294Z,9.30
2018-01-26T13:16:04.733Z,9.30
2018-01-26T13:18:32.210Z,9.40
2018-01-26T13:21:00.093Z,9.20
2018-01-26T13:23:27.793Z,9.50
2018-01-26T13:25:56.243Z,9.50
2018-01-26T13:28:23.908Z,9.50
2018-01-26T13:30:51.370Z,9.60
2018-01-26T13:33:19.090Z,9.70
2018-01-26T13:35:46.579Z,9.50
2018-01-26T13:38:13.993Z,9.20
2018-01-26T13:40:42.432Z,8.60
2018-01-26T13:43:09.877Z,8.70
2018-01-26T13:45:37.367Z,8.60
2018-01-26T13:48:04.808Z,8.70
2018-01-26T13:50:32.566Z,8.50
2018-01-26T13:53:00.089Z,8.60
2018-01-26T13:55:27.762Z,8.60
2018-01-26T13:57:55.202Z,8.70
2018-01-26T14:00:22.650Z,8.90
2018-01-26T14:02:50.117Z,8.80
2018-01-26T14:05:17.581Z,8.60
2018-01-26T14:07:45.023Z,8.50
2018-01-26T14:10:12.510Z,8.70
2018-01-26T14:12:39.941Z,8.70
2018-01-26T14:15:07.405Z,8.60
2018-01-26T14:17:34.833Z,8.70
2018-01-26T14:20:03.102Z,8.70
2018-01-26T14:22:30.542Z,8.60
2018-01-26T14:24:58.283Z,8.80
2018-01-26T14:27:26.043Z,8.70
2018-01-26T14:29:53.826Z,8.60
2018-01-26T14:32:21.471Z,8.70
2018-01-26T14:34:48.981Z,8.80
2018-01-26T14:37:16.510Z,8.70
2018-01-26T14:39:44.252Z,8.80
2018-01-26T14:42:12.337Z,8.80
2018-01-26T14:44:39.793Z,8.70
2018-01-26T14:47:07.271Z,8.70
2018-01-26T14:49:35.016Z,8.50
2018-01-26T14:52:02.769Z,8.50
2018-01-26T14:54:30.531Z,8.20
2018-01-26T14:56:57.991Z,8.20
2018-01-26T14:59:26.058Z,8.20
2018-01-26T15:01:53.799Z,8.20
2018-01-26T15:04:21.426Z,8.20
2018-01-26T15:06:49.742Z,8.10
2018-01-26T15:09:17.345Z,8.10
2018-01-26T15:11:44.804Z,8.10
2018-01-26T15:14:12.647Z,8.10
2018-01-26T15:16:40.118Z,8.10
2018-01-26T15:19:07.565Z,8.00
2018-01-26T15:21:35.226Z,8.10
2018-01-26T15:24:02.702Z,8.00
2018-01-26T15:26:30.239Z,8.00
2018-01-26T15:28:57.726Z,8.10
2018-01-26T15:31:25.165Z,8.20
2018-01-26T15:33:52.615Z,8.20
2018-01-26T15:36:20.078Z,8.20
2018-01-26T15:38:47.530Z,8.20
2018-01-26T15:41:14.977Z,8.20
2018-01-26T15:43:42.443Z,8.20
2018-01-26T15:46:09.897Z,8.20
2018-01-26T15:48:37.327Z,8.20
2018-01-26T15:51:04.765Z,8.30
2018-01-26T15:53:32.223Z,8.30
2018-01-26T15:55:59.662Z,8.30
2018-01-26T15:58:27.663Z,8.30
2018-01-26T16:00:55.114Z,8.20
2018-01-26T16:03:22.545Z,8.20
2018-01-26T16:05:50.775Z,8.10
2018-01-26T16:08:18.214Z,8.00
2018-01-26T16:10:45.698Z,8.00
2018-01-26T16:13:13.142Z,7.90
2018-01-26T16:18:31.121Z,7.80
2018-01-26T16:21:02.541Z,7.70
2018-01-26T16:23:29.991Z,7.70
2018-01-26T16:25:57.442Z,7.70
2018-01-26T16:28:24.894Z,7.70
2018-01-26T16:30:52.350Z,7.70
2018-01-26T16:33:21.010Z,7.60
2018-01-26T16:35:48.456Z,7.60
2018-01-26T16:38:16.299Z,7.50
2018-01-26T16:40:43.769Z,7.50
2018-01-26T16:43:11.819Z,7.50
2018-01-26T16:45:39.480Z,7.40
2018-01-26T16:48:06.940Z,7.40
2018-01-26T16:50:34.418Z,7.30
2018-01-26T16:53:01.881Z,7.40
2018-01-26T16:55:29.354Z,7.40
2018-01-26T16:57:56.794Z,7.50
2018-01-26T17:00:24.246Z,7.50
2018-01-26T17:02:51.734Z,7.40
2018-01-26T17:05:19.173Z,7.30
2018-01-26T17:07:46.633Z,7.40
2018-01-26T17:10:14.074Z,7.30
2018-01-26T17:12:41.526Z,7.30
2018-01-26T17:15:08.979Z,7.30
2018-01-26T17:17:36.436Z,7.30
2018-01-26T17:20:03.870Z,7.30
2018-01-26T17:22:31.336Z,7.20
2018-01-26T17:24:58.767Z,7.10
2018-01-26T17:27:26.297Z,7.00
2018-01-26T17:29:53.974Z,6.90
2018-01-26T17:32:22.231Z,6.90
2018-01-26T17:34:49.670Z,6.90
2018-01-26T17:37:17.409Z,6.90
2018-01-26T17:39:45.057Z,6.80
2018-01-26T17:42:12.858Z,6.80
2018-01-26T17:44:40.237Z,6.90
2018-01-26T17:47:08.461Z,6.90
2018-01-26T17:49:35.902Z,6.90
2018-01-26T17:52:03.360Z,6.90
2018-01-26T17:54:31.455Z,6.90
2018-01-26T17:56:58.934Z,6.90
2018-01-26T17:59:26.597Z,6.80
2018-01-26T18:01:54.313Z,6.90
2018-01-26T18:04:21.828Z,6.90
2018-01-26T18:06:49.270Z,7.00
2018-01-26T18:09:16.743Z,7.00
2018-01-26T18:11:45.190Z,7.00
2018-01-26T18:14:12.870Z,7.00
2018-01-26T18:16:40.818Z,6.90
2018-01-26T18:19:08.259Z,6.90
2018-01-26T18:21:35.961Z,6.90
2018-01-26T18:24:03.505Z,6.90
2018-01-26T18:26:30.975Z,6.90
2018-01-26T18:28:58.416Z,6.90
2018-01-26T18:31:33.485Z,6.90
2018-01-26T18:34:00.948Z,7.00
2018-01-26T18:36:28.396Z,7.00
2018-01-26T18:38:55.827Z,7.00
2018-01-26T18:41:23.461Z,6.90
2018-01-26T18:43:51.067Z,6.90
2018-01-26T18:46:18.831Z,6.80
2018-01-26T18:48:46.271Z,6.70
2018-01-26T18:51:13.917Z,6.80
2018-01-26T18:53:41.387Z,6.70
2018-01-26T18:56:09.237Z,6.60
2018-01-26T18:58:36.890Z,6.70
2018-01-26T19:01:04.405Z,6.60
2018-01-26T19:03:32.702Z,6.70
2018-01-26T19:06:00.371Z,6.70
2018-01-26T19:08:27.966Z,6.70
2018-01-26T19:10:55.429Z,6.60
2018-01-26T19:13:23.292Z,6.60
2018-01-26T19:15:50.967Z,6.50
2018-01-26T19:18:18.410Z,6.40
2018-01-26T19:20:46.234Z,6.30
2018-01-26T19:23:13.954Z,6.20
2018-01-26T19:25:41.476Z,6.20
2018-01-26T19:28:09.222Z,6.10
2018-01-26T19:30:36.841Z,6.00
2018-01-26T19:33:04.530Z,5.90
2018-01-26T19:35:31.973Z,5.80
2018-01-26T19:37:59.566Z,5.70
2018-01-26T19:40:27.027Z,5.80
2018-01-26T19:42:54.823Z,5.80
2018-01-26T19:45:22.310Z,5.70
2018-01-26T19:47:50.146Z,5.70
2018-01-26T19:50:17.607Z,5.50
2018-01-26T19:52:45.057Z,5.40
2018-01-26T19:55:12.722Z,5.20
2018-01-26T19:57:40.204Z,5.10
2018-01-26T20:00:07.655Z,5.10
2018-01-26T20:02:35.514Z,5.20
2018-01-26T20:05:20.434Z,5.30
2018-01-26T20:11:00.722Z,5.40
2018-01-26T20:13:28.213Z,5.40
2018-01-26T20:15:56.190Z,5.40
2018-01-26T20:18:23.635Z,5.30
2018-01-26T20:20:51.603Z,5.30
2018-01-26T20:23:19.091Z,5.30
2018-01-26T20:25:46.523Z,5.40
2018-01-26T20:28:13.986Z,5.50
2018-01-26T20:30:42.669Z,5.50
2018-01-26T20:33:10.126Z,5.50
2018-01-26T20:35:37.606Z,5.60
2018-01-26T20:38:05.233Z,5.60
2018-01-26T20:40:33.101Z,5.60
2018-01-26T20:43:01.169Z,5.40
2018-01-26T20:45:29.254Z,5.40
2018-01-26T20:47:56.722Z,5.40
2018-01-26T20:50:24.474Z,5.40
2018-01-26T20:52:52.831Z,5.30
2018-01-26T20:55:20.795Z,5.30
2018-01-26T20:57:48.259Z,5.30
2018-01-26T21:00:16.043Z,5.20
2018-01-26T21:02:43.508Z,5.30
2018-01-26T21:05:11.250Z,5.40
2018-01-26T21:07:38.835Z,5.50
2018-01-26T21:10:06.554Z,5.60
2018-01-26T21:12:34.345Z,5.60
2018-01-26T21:15:02.007Z,5.50
2018-01-26T21:17:29.482Z,5.60
2018-01-26T21:19:56.970Z,5.70
2018-01-26T21:22:24.430Z,5.60
2018-01-26T21:24:51.943Z,5.50
2018-01-26T21:27:19.651Z,5.60
2018-01-26T21:29:47.490Z,5.60
2018-01-26T21:32:14.956Z,5.60
2018-01-26T21:34:42.514Z,5.60
2018-01-26T21:37:10.026Z,5.60
2018-01-26T21:39:37.469Z,5.50
2018-01-26T21:42:05.258Z,5.50
2018-01-26T21:44:32.731Z,5.50
2018-01-26T21:47:00.174Z,5.50
2018-01-26T21:49:27.628Z,5.50
2018-01-26T21:51:55.211Z,5.50
2018-01-26T21:54:22.976Z,5.50
2018-01-26T21:56:50.498Z,5.50
2018-01-26T21:59:17.962Z,5.50
2018-01-26T22:01:45.410Z,5.60
2018-01-26T22:04:12.866Z,5.50
2018-01-26T22:06:45.935Z,5.50
2018-01-26T22:09:14.327Z,5.50
2018-01-26T22:11:41.776Z,5.40
2018-01-26T22:14:09.574Z,5.40
2018-01-26T22:16:37.324Z,5.40
2018-01-26T22:19:04.807Z,5.50
2018-01-26T22:21:32.205Z,5.50
2018-01-26T22:24:00.423Z,5.60
2018-01-26T22:26:28.125Z,5.60
2018-01-26T22:28:55.579Z,5.60
2018-01-26T22:31:23.023Z,5.50
2018-01-26T22:33:50.876Z,5.50
2018-01-26T22:36:18.635Z,5.50
2018-01-26T22:38:46.094Z,5.60
2018-01-26T22:41:13.736Z,5.60
2018-01-26T22:43:41.495Z,5.60
2018-01-26T22:46:08.958Z,5.60
2018-01-26T22:48:36.542Z,5.70
2018-01-26T22:51:04.095Z,5.70
2018-01-26T22:53:32.066Z,5.60
2018-01-26T22:55:59.503Z,5.60
2018-01-26T22:58:27.292Z,5.60
2018-01-26T23:00:55.056Z,5.70
2018-01-26T23:03:22.827Z,5.70
2018-01-26T23:05:50.286Z,5.80
2018-01-26T23:08:18.034Z,5.80
2018-01-26T23:10:46.111Z,5.70
2018-01-26T23:13:13.569Z,5.80
2018-01-26T23:15:41.011Z,5.90
2018-01-26T23:18:08.669Z,5.90
2018-01-26T23:20:36.252Z,6.00
2018-01-26T23:23:03.957Z,6.00
2018-01-26T23:25:31.653Z,6.00
2018-01-26T23:27:59.540Z,6.00
2018-01-26T23:30:26.989Z,5.90
2018-01-26T23:32:54.452Z,5.90
2018-01-26T23:35:21.882Z,5.90
2018-01-26T23:37:49.326Z,6.00
2018-01-26T23:40:16.772Z,6.10
2018-01-26T23:42:44.590Z,6.10
2018-01-26T23:45:12.349Z,6.10
2018-01-26T23:47:40.130Z,6.20
2018-01-26T23:50:07.906Z,6.30
2018-01-26T23:52:35.817Z,6.20
2018-01-26T23:55:03.900Z,6.10
2018-01-26T23:57:31.683Z,6.10
2018-01-26T23:59:59.549Z,6.20
